createdAt,value
2022-11-29T00:00:06.893Z,76.53
2022-11-29T00:03:35.941Z,76.53
2022-11-29T00:06:57.631Z,76.33
2022-11-29T00:10:19.967Z,76.59
2022-11-29T00:13:42.295Z,76.55
2022-11-29T00:17:04.554Z,76.61
2022-11-29T00:20:29.813Z,76.49
2022-11-29T00:23:51.788Z,76.85
2022-11-29T00:27:14.013Z,76.62
2022-11-29T00:30:35.978Z,76.58
2022-11-29T00:33:59.102Z,76.78
2022-11-29T00:37:22.485Z,76.57
2022-11-29T00:40:44.114Z,76.49
2022-11-29T00:44:05.995Z,76.58
2022-11-29T00:47:28.050Z,76.54
2022-11-29T00:50:50.226Z,76.33
2022-11-29T00:54:13.745Z,76.66
2022-11-29T00:57:35.393Z,76.60
2022-11-29T01:00:57.694Z,76.55
2022-11-29T01:04:20.826Z,76.33
2022-11-29T01:07:42.680Z,76.47
2022-11-29T01:11:08.821Z,76.54
2022-11-29T01:14:30.753Z,76.50
2022-11-29T01:17:53.451Z,76.41
2022-11-29T01:21:16.592Z,76.65
2022-11-29T01:24:38.217Z,76.29
2022-11-29T01:28:01.455Z,76.34
2022-11-29T01:31:25.418Z,76.37
2022-11-29T01:34:47.180Z,76.43
2022-11-29T01:38:08.946Z,76.63
2022-11-29T01:41:32.673Z,77.01
2022-11-29T01:45:15.035Z,76.67
2022-11-29T01:48:36.639Z,76.77
2022-11-29T01:52:02.107Z,76.56
2022-11-29T01:55:23.653Z,77.05
2022-11-29T01:58:46.590Z,77.02
2022-11-29T02:02:14.555Z,76.44
2022-11-29T02:05:37.841Z,76.90
2022-11-29T02:08:59.611Z,76.78
2022-11-29T02:12:28.518Z,76.67
2022-11-29T02:16:00.444Z,77.02
2022-11-29T02:19:46.504Z,76.84
2022-11-29T02:23:27.823Z,76.69
2022-11-29T02:27:04.009Z,76.60
2022-11-29T02:30:49.377Z,76.85
2022-11-29T02:34:39.183Z,77.13
2022-11-29T02:38:22.054Z,76.95
2022-11-29T02:41:57.174Z,77.06
2022-11-29T02:45:37.259Z,76.97
2022-11-29T02:49:05.339Z,76.87
2022-11-29T02:52:36.338Z,76.93
2022-11-29T02:56:05.634Z,76.96
2022-11-29T02:59:41.033Z,77.01
2022-11-29T03:03:09.462Z,77.01
2022-11-29T03:06:37.766Z,76.93
2022-11-29T03:10:06.919Z,77.16
2022-11-29T03:13:44.472Z,77.18
2022-11-29T03:17:14.978Z,76.94
2022-11-29T03:20:46.603Z,77.10
2022-11-29T03:24:13.212Z,76.83
2022-11-29T03:27:43.180Z,77.02
2022-11-29T03:31:11.755Z,77.00
2022-11-29T03:34:46.579Z,77.18
2022-11-29T03:38:17.271Z,77.38
2022-11-29T03:41:44.791Z,76.98
2022-11-29T03:45:15.615Z,77.27
2022-11-29T03:48:41.742Z,76.94
2022-11-29T03:52:13.303Z,77.35
2022-11-29T03:55:50.327Z,77.27
2022-11-29T03:59:24.363Z,77.28
2022-11-29T04:03:20.109Z,77.33
2022-11-29T04:06:57.722Z,77.25
2022-11-29T04:10:35.471Z,77.65
2022-11-29T04:14:39.165Z,77.43
2022-11-29T04:18:34.042Z,77.38
2022-11-29T04:22:18.193Z,77.26
2022-11-29T04:26:20.384Z,77.33
2022-11-29T04:30:09.147Z,77.16
2022-11-29T04:33:56.394Z,77.08
2022-11-29T04:37:46.336Z,77.40
2022-11-29T04:41:20.426Z,77.32
2022-11-29T04:44:55.437Z,77.33
2022-11-29T04:48:43.685Z,77.40
2022-11-29T04:52:24.495Z,77.66
2022-11-29T04:55:53.626Z,77.54
2022-11-29T04:59:22.090Z,77.43
2022-11-29T05:02:55.240Z,77.47
2022-11-29T05:06:28.852Z,77.55
2022-11-29T05:10:01.704Z,77.42
2022-11-29T05:13:32.526Z,77.52
2022-11-29T05:17:01.473Z,77.54
2022-11-29T05:20:33.621Z,78.09
2022-11-29T05:24:04.358Z,77.70
2022-11-29T05:27:38.445Z,77.65
2022-11-29T05:31:30.650Z,77.43
2022-11-29T05:35:09.209Z,77.69
2022-11-29T05:39:08.656Z,77.42
2022-11-29T05:42:51.992Z,77.45
2022-11-29T05:46:23.747Z,77.64
2022-11-29T05:49:55.437Z,77.47
2022-11-29T05:53:23.507Z,77.68
2022-11-29T05:56:54.159Z,77.58
2022-11-29T06:00:19.623Z,77.36
2022-11-29T06:03:54.445Z,77.64
2022-11-29T06:07:21.771Z,77.67
2022-11-29T06:10:57.707Z,77.85
2022-11-29T06:14:42.894Z,77.48
2022-11-29T06:18:19.448Z,77.53
2022-11-29T06:21:51.876Z,77.57
2022-11-29T06:25:30.707Z,77.32
2022-11-29T06:29:02.888Z,77.53
2022-11-29T06:32:34.139Z,77.40
2022-11-29T06:36:17.093Z,77.18
2022-11-29T06:39:41.056Z,77.30
2022-11-29T06:43:02.967Z,77.43
2022-11-29T06:46:34.613Z,77.41
2022-11-29T06:50:02.662Z,77.44
2022-11-29T06:53:33.478Z,77.41
2022-11-29T06:57:02.520Z,77.03
2022-11-29T07:00:27.089Z,77.22
2022-11-29T07:04:07.871Z,77.25
2022-11-29T07:07:31.308Z,77.00
2022-11-29T07:10:55.650Z,76.97
2022-11-29T07:14:19.828Z,76.60
2022-11-29T07:17:55.675Z,76.93
2022-11-29T07:21:31.341Z,76.79
2022-11-29T07:25:03.106Z,76.28
2022-11-29T07:28:38.849Z,76.42
2022-11-29T07:32:11.730Z,76.40
2022-11-29T07:35:40.019Z,76.35
2022-11-29T07:39:14.771Z,75.86
2022-11-29T07:42:48.508Z,76.01
2022-11-29T07:46:10.701Z,76.20
2022-11-29T07:49:34.117Z,76.28
2022-11-29T07:52:57.805Z,76.26
2022-11-29T07:56:19.546Z,76.36
2022-11-29T07:59:41.235Z,76.05
2022-11-29T08:03:02.728Z,76.15
2022-11-29T08:06:27.621Z,76.30
2022-11-29T08:09:49.321Z,75.76
2022-11-29T08:13:11.010Z,75.61
2022-11-29T08:16:33.128Z,75.55
2022-11-29T08:19:54.782Z,75.58
2022-11-29T08:23:18.389Z,75.66
2022-11-29T08:26:40.271Z,75.85
2022-11-29T08:30:02.304Z,75.72
2022-11-29T08:33:24.311Z,75.13
2022-11-29T08:36:46.347Z,75.39
2022-11-29T08:40:11.088Z,75.22
2022-11-29T08:43:33.599Z,75.07
2022-11-29T08:47:12.714Z,75.05
2022-11-29T08:50:34.332Z,75.07
2022-11-29T08:53:56.231Z,75.02
2022-11-29T09:01:01.148Z,75.02
2022-11-29T09:04:23.063Z,74.94
2022-11-29T09:07:46.428Z,74.97
2022-11-29T09:11:13.612Z,74.89
2022-11-29T09:14:37.010Z,75.11
2022-11-29T09:17:58.920Z,74.83
2022-11-29T09:21:20.638Z,75.11
2022-11-29T09:24:42.698Z,74.86
2022-11-29T09:28:04.910Z,75.23
2022-11-29T09:31:29.237Z,75.07
2022-11-29T09:34:51.108Z,74.87
2022-11-29T09:38:13.566Z,74.83
2022-11-29T09:41:49.807Z,74.67
2022-11-29T09:45:18.519Z,74.54
2022-11-29T09:48:58.667Z,74.57
2022-11-29T09:52:30.676Z,74.26
2022-11-29T09:56:06.131Z,74.20
2022-11-29T09:59:33.491Z,73.81
2022-11-29T10:03:01.886Z,74.05
2022-11-29T10:06:29.194Z,74.00
2022-11-29T10:09:56.496Z,74.34
2022-11-29T10:13:23.289Z,74.01
2022-11-29T10:16:51.912Z,74.36
2022-11-29T10:20:18.095Z,74.13
2022-11-29T10:23:44.923Z,74.33
2022-11-29T10:27:15.233Z,74.45
2022-11-29T10:30:37.833Z,74.09
2022-11-29T10:34:02.494Z,74.47
2022-11-29T10:37:25.795Z,74.27
2022-11-29T10:40:52.610Z,74.28
2022-11-29T10:44:16.309Z,74.10
2022-11-29T10:47:37.995Z,73.90
2022-11-29T10:51:00.474Z,74.33
2022-11-29T10:54:31.122Z,74.53
2022-11-29T10:58:12.708Z,74.49
2022-11-29T11:01:40.170Z,74.07
2022-11-29T11:05:02.976Z,74.36
2022-11-29T11:08:26.214Z,74.71
2022-11-29T11:11:52.991Z,74.72
2022-11-29T11:15:28.833Z,74.45
2022-11-29T11:18:50.492Z,74.49
2022-11-29T11:22:23.047Z,74.48
2022-11-29T11:25:44.776Z,74.17
2022-11-29T11:29:06.305Z,74.25
2022-11-29T11:32:30.147Z,74.28
2022-11-29T11:36:10.840Z,74.43
2022-11-29T11:39:33.474Z,74.43
2022-11-29T11:42:57.570Z,74.19
2022-11-29T11:46:19.627Z,74.14
2022-11-29T11:49:50.934Z,73.81
2022-11-29T11:53:22.396Z,73.80
2022-11-29T11:56:45.143Z,73.84
2022-11-29T12:00:08.326Z,73.77
2022-11-29T12:03:49.215Z,73.55
2022-11-29T12:07:19.006Z,73.72
2022-11-29T12:10:41.508Z,73.63
2022-11-29T12:14:05.486Z,73.44
2022-11-29T12:17:34.563Z,73.28
2022-11-29T12:21:01.500Z,73.64
2022-11-29T12:24:29.167Z,73.20
2022-11-29T12:27:51.230Z,73.23
2022-11-29T12:31:28.889Z,73.21
2022-11-29T12:35:18.785Z,72.83
2022-11-29T12:39:01.140Z,73.18
2022-11-29T12:42:36.681Z,73.05
2022-11-29T12:46:06.246Z,72.98
2022-11-29T12:49:35.596Z,72.94
2022-11-29T12:53:11.718Z,72.71
2022-11-29T12:56:38.476Z,72.88
2022-11-29T13:00:11.047Z,72.98
2022-11-29T13:03:41.462Z,72.74
2022-11-29T13:07:10.274Z,72.82
2022-11-29T13:10:48.666Z,72.93
2022-11-29T13:14:41.497Z,72.66
2022-11-29T13:18:05.879Z,72.86
2022-11-29T13:21:33.495Z,72.66
2022-11-29T13:24:58.812Z,72.44
2022-11-29T13:28:26.539Z,72.75
2022-11-29T13:31:49.905Z,72.63
2022-11-29T13:35:34.134Z,72.57
2022-11-29T13:39:06.914Z,72.94
2022-11-29T13:42:38.295Z,72.75
2022-11-29T13:46:09.388Z,72.80
2022-11-29T13:49:53.822Z,72.98
2022-11-29T13:53:19.183Z,73.59
2022-11-29T13:56:47.040Z,73.38
2022-11-29T14:00:28.830Z,73.39
2022-11-29T14:04:04.743Z,73.35
2022-11-29T14:07:26.683Z,73.27
2022-11-29T14:10:51.994Z,73.36
2022-11-29T14:14:23.809Z,73.52
2022-11-29T14:17:52.723Z,73.34
2022-11-29T14:21:14.658Z,73.73
2022-11-29T14:24:41.143Z,73.44
2022-11-29T14:28:26.236Z,73.59
2022-11-29T14:31:56.147Z,73.78
2022-11-29T14:35:24.862Z,73.70
2022-11-29T14:38:53.942Z,73.70
2022-11-29T14:42:18.870Z,73.73
2022-11-29T14:45:42.154Z,73.75
2022-11-29T14:49:05.622Z,74.08
2022-11-29T14:52:33.635Z,74.08
2022-11-29T14:56:45.825Z,74.49
2022-11-29T15:00:12.625Z,75.27
2022-11-29T15:03:49.606Z,75.11
2022-11-29T15:07:19.080Z,75.00
2022-11-29T15:10:46.292Z,75.15
2022-11-29T15:14:16.960Z,75.68
2022-11-29T15:17:50.870Z,75.43
2022-11-29T15:21:25.897Z,76.26
2022-11-29T15:24:59.145Z,76.28
2022-11-29T15:28:25.110Z,76.45
2022-11-29T15:31:50.863Z,76.61
2022-11-29T15:35:18.194Z,76.61
2022-11-29T15:38:47.163Z,76.93
2022-11-29T15:42:12.615Z,76.93
2022-11-29T15:45:36.933Z,76.87
2022-11-29T15:49:17.981Z,77.18
2022-11-29T15:52:40.044Z,77.99
2022-11-29T15:56:05.803Z,77.92
2022-11-29T15:59:34.983Z,77.87
2022-11-29T16:03:01.067Z,77.63
2022-11-29T16:06:28.855Z,78.05
2022-11-29T16:09:55.126Z,77.53
2022-11-29T16:13:38.068Z,77.59
2022-11-29T16:17:03.405Z,77.64
2022-11-29T16:20:29.885Z,77.35
2022-11-29T16:23:52.022Z,77.50
2022-11-29T16:27:14.961Z,77.25
2022-11-29T16:30:43.175Z,77.21
2022-11-29T16:34:09.125Z,76.99
2022-11-29T16:37:37.557Z,77.71
2022-11-29T16:41:05.156Z,77.41
2022-11-29T16:45:14.551Z,77.40
2022-11-29T16:48:38.698Z,77.51
2022-11-29T16:52:00.482Z,77.50
2022-11-29T16:55:22.304Z,78.13
2022-11-29T16:59:16.954Z,78.39
2022-11-29T17:02:30.828Z,78.24
2022-11-29T17:05:54.091Z,77.99
2022-11-29T17:09:23.197Z,77.68
2022-11-29T17:12:48.223Z,77.94
2022-11-29T17:16:14.556Z,77.83
2022-11-29T17:19:36.598Z,77.65
2022-11-29T17:23:02.489Z,77.73
2022-11-29T17:26:24.979Z,77.50
2022-11-29T17:29:46.762Z,77.54
2022-11-29T17:33:08.222Z,79.32
2022-11-29T17:36:30.610Z,79.42
2022-11-29T17:39:53.928Z,78.27
2022-11-29T17:43:15.933Z,77.93
2022-11-29T17:46:37.950Z,77.47
2022-11-29T17:49:59.944Z,77.37
2022-11-29T17:53:21.583Z,77.09
2022-11-29T17:56:44.714Z,77.04
2022-11-29T18:00:08.873Z,77.01
2022-11-29T18:03:30.064Z,77.01
2022-11-29T18:06:51.946Z,77.15
2022-11-29T18:10:13.916Z,77.14
2022-11-29T18:13:37.355Z,77.27
2022-11-29T18:16:59.172Z,76.55
2022-11-29T18:20:20.762Z,76.99
2022-11-29T18:23:43.877Z,77.11
2022-11-29T18:27:05.596Z,76.78
2022-11-29T18:30:29.065Z,77.04
2022-11-29T18:33:54.078Z,76.89
2022-11-29T18:37:27.560Z,77.17
2022-11-29T18:40:59.299Z,77.26
2022-11-29T18:44:24.259Z,76.99
2022-11-29T18:47:47.586Z,76.64
2022-11-29T18:51:11.919Z,76.53
2022-11-29T18:54:33.794Z,76.87
2022-11-29T18:57:55.763Z,77.07
2022-11-29T19:01:19.764Z,77.19
2022-11-29T19:04:43.031Z,76.65
2022-11-29T19:08:04.647Z,76.46
2022-11-29T19:11:28.119Z,76.92
2022-11-29T19:14:50.384Z,77.59
2022-11-29T19:18:12.846Z,77.52
2022-11-29T19:21:36.390Z,76.51
2022-11-29T19:24:58.304Z,76.43
2022-11-29T19:28:20.285Z,76.43
2022-11-29T19:31:42.613Z,76.20
2022-11-29T19:35:05.034Z,76.18
2022-11-29T19:38:28.122Z,76.10
2022-11-29T19:41:49.705Z,75.95
2022-11-29T19:45:18.892Z,76.01
2022-11-29T19:48:40.903Z,76.13
2022-11-29T19:52:02.935Z,75.81
2022-11-29T19:55:26.882Z,75.91
2022-11-29T19:58:49.008Z,75.82
2022-11-29T20:02:11.814Z,75.72
2022-11-29T20:05:33.658Z,75.81
2022-11-29T20:08:55.978Z,75.25
2022-11-29T20:12:19.146Z,75.58
2022-11-29T20:15:41.183Z,75.50
2022-11-29T20:19:03.353Z,75.46
2022-11-29T20:22:25.042Z,75.36
2022-11-29T20:25:49.976Z,75.27
2022-11-29T20:29:14.227Z,75.26
2022-11-29T20:32:36.556Z,74.86
2022-11-29T20:36:13.566Z,75.32
2022-11-29T20:39:44.692Z,75.18
2022-11-29T20:43:14.340Z,74.96
2022-11-29T20:46:39.929Z,74.84
2022-11-29T20:50:01.872Z,75.24
2022-11-29T20:53:33.153Z,74.89
2022-11-29T20:56:54.982Z,75.20
2022-11-29T21:00:18.320Z,75.28
2022-11-29T21:03:41.612Z,75.30
2022-11-29T21:07:03.446Z,75.15
2022-11-29T21:10:25.238Z,75.41
2022-11-29T21:13:48.157Z,75.53
2022-11-29T21:17:10.660Z,75.67
2022-11-29T21:20:34.530Z,75.34
2022-11-29T21:24:04.732Z,75.47
2022-11-29T21:27:31.550Z,75.09
2022-11-29T21:30:54.001Z,75.38
2022-11-29T21:34:15.993Z,75.38
2022-11-29T21:37:39.263Z,75.81
2022-11-29T21:41:00.994Z,75.62
2022-11-29T21:44:22.528Z,75.28
2022-11-29T21:47:45.118Z,75.09
2022-11-29T21:51:07.946Z,75.11
2022-11-29T21:54:31.402Z,75.58
2022-11-29T21:57:53.264Z,74.98
2022-11-29T22:01:17.383Z,75.10
2022-11-29T22:04:38.946Z,75.24
2022-11-29T22:08:00.933Z,75.27
2022-11-29T22:11:35.519Z,75.13
2022-11-29T22:14:57.423Z,74.53
2022-11-29T22:18:18.954Z,74.84
2022-11-29T22:21:41.323Z,74.72
2022-11-29T22:25:03.050Z,74.89
2022-11-29T22:28:26.482Z,74.85
2022-11-29T22:31:50.262Z,74.54
2022-11-29T22:35:11.805Z,74.62
2022-11-29T22:38:33.368Z,74.64
2022-11-29T22:41:55.431Z,74.90
2022-11-29T22:45:18.523Z,74.76
2022-11-29T22:48:41.834Z,75.03
2022-11-29T22:52:03.444Z,74.93
2022-11-29T22:55:24.857Z,75.03
2022-11-29T22:58:46.874Z,74.71
2022-11-29T23:02:10.080Z,74.67
2022-11-29T23:05:34.044Z,74.71
2022-11-29T23:08:57.807Z,74.30
2022-11-29T23:12:20.798Z,75.02
2022-11-29T23:15:42.839Z,74.59
2022-11-29T23:19:06.371Z,74.86
2022-11-29T23:22:27.987Z,74.86
2022-11-29T23:25:50.698Z,74.55
2022-11-29T23:29:15.513Z,74.86
2022-11-29T23:32:37.286Z,74.99
2022-11-29T23:36:06.432Z,74.72
2022-11-29T23:39:27.842Z,74.76
2022-11-29T23:42:52.035Z,75.14
2022-11-29T23:46:16.047Z,75.10
2022-11-29T23:49:39.820Z,74.52
2022-11-29T23:53:03.220Z,74.62
2022-11-29T23:56:24.804Z,74.94
2022-11-29T23:59:46.555Z,75.00
